sensor_id;sensor_type;location;lat;lon;timestamp;pressure;altitude;pressure_sealevel;temperature;humidity
13422;BME280;6782;55.904;13.396;2023-05-12T00:00:46;101534.81;;;6.68;100.00
13422;BME280;6782;55.904;13.396;2023-05-12T00:03:33;101523.44;;;6.61;100.00
13422;BME280;6782;55.904;13.396;2023-05-12T00:06:21;101540.91;;;6.65;100.00
13422;BME280;6782;55.904;13.396;2023-05-12T00:09:08;101544.41;;;6.64;100.00
13422;BME280;6782;55.904;13.396;2023-05-12T00:11:57;101546.16;;;6.62;100.00
13422;BME280;6782;55.904;13.396;2023-05-12T00:14:44;101552.19;;;6.55;100.00
13422;BME280;6782;55.904;13.396;2023-05-12T00:17:31;101561.88;;;6.65;100.00
13422;BME280;6782;55.904;13.396;2023-05-12T00:20:18;101567.13;;;6.65;100.00
13422;BME280;6782;55.904;13.396;2023-05-12T00:23:05;101563.69;;;6.72;100.00
13422;BME280;6782;55.904;13.396;2023-05-12T00:25:53;101570.63;;;6.70;100.00
13422;BME280;6782;55.904;13.396;2023-05-12T00:28:41;101586.47;;;6.85;100.00
13422;BME280;6782;55.904;13.396;2023-05-12T00:31:28;101586.50;;;6.91;100.00
13422;BME280;6782;55.904;13.396;2023-05-12T00:34:16;101583.03;;;6.96;100.00
13422;BME280;6782;55.904;13.396;2023-05-12T00:37:04;101570.75;;;6.85;100.00
13422;BME280;6782;55.904;13.396;2023-05-12T00:39:51;101570.69;;;6.81;100.00
13422;BME280;6782;55.904;13.396;2023-05-12T00:42:39;101560.13;;;6.61;100.00
13422;BME280;6782;55.904;13.396;2023-05-12T00:45:27;101579.41;;;6.72;100.00
13422;BME280;6782;55.904;13.396;2023-05-12T00:48:15;101590.84;;;6.88;100.00
13422;BME280;6782;55.904;13.396;2023-05-12T00:51:03;101573.25;;;6.70;100.00
13422;BME280;6782;55.904;13.396;2023-05-12T00:53:52;101580.28;;;6.76;100.00
13422;BME280;6782;55.904;13.396;2023-05-12T00:56:40;101584.69;;;6.81;100.00
13422;BME280;6782;55.904;13.396;2023-05-12T00:59:27;101578.47;;;6.64;100.00
13422;BME280;6782;55.904;13.396;2023-05-12T01:02:16;101588.19;;;6.77;100.00
13422;BME280;6782;55.904;13.396;2023-05-12T01:05:04;101591.69;;;6.82;100.00
13422;BME280;6782;55.904;13.396;2023-05-12T01:07:51;101591.69;;;6.82;100.00
13422;BME280;6782;55.904;13.396;2023-05-12T01:10:42;101586.47;;;6.82;100.00
13422;BME280;6782;55.904;13.396;2023-05-12T01:13:30;101581.13;;;6.73;100.00
13422;BME280;6782;55.904;13.396;2023-05-12T01:16:22;101582.88;;;6.71;100.00
13422;BME280;6782;55.904;13.396;2023-05-12T01:19:28;101586.38;;;6.67;100.00
13422;BME280;6782;55.904;13.396;2023-05-12T01:22:20;101596.88;;;6.73;100.00
13422;BME280;6782;55.904;13.396;2023-05-12T01:25:09;101585.44;;;6.59;100.00
13422;BME280;6782;55.904;13.396;2023-05-12T01:27:59;101590.59;;;6.46;100.00
13422;BME280;6782;55.904;13.396;2023-05-12T01:30:48;101606.38;;;6.52;100.00
13422;BME280;6782;55.904;13.396;2023-05-12T01:33:35;101608.19;;;6.65;100.00
13422;BME280;6782;55.904;13.396;2023-05-12T01:36:23;101610.75;;;6.60;100.00
13422;BME280;6782;55.904;13.396;2023-05-12T01:39:10;101623.94;;;6.71;100.00
13422;BME280;6782;55.904;13.396;2023-05-12T01:41:57;101623.00;;;6.58;100.00
13422;BME280;6782;55.904;13.396;2023-05-12T01:44:47;101625.63;;;6.60;100.00
13422;BME280;6782;55.904;13.396;2023-05-12T01:47:34;101610.69;;;6.48;100.00
13422;BME280;6782;55.904;13.396;2023-05-12T01:50:21;101626.50;;;6.57;100.00
13422;BME280;6782;55.904;13.396;2023-05-12T01:53:08;101614.13;;;6.38;100.00
13422;BME280;6782;55.904;13.396;2023-05-12T01:55:56;101625.44;;;6.34;100.00
13422;BME280;6782;55.904;13.396;2023-05-12T01:58:43;101632.44;;;6.34;100.00
13422;BME280;6782;55.904;13.396;2023-05-12T02:01:33;101620.16;;;6.26;100.00
13422;BME280;6782;55.904;13.396;2023-05-12T02:04:21;101636.78;;;6.33;100.00
13422;BME280;6782;55.904;13.396;2023-05-12T02:07:08;101639.25;;;6.16;100.00
13422;BME280;6782;55.904;13.396;2023-05-12T02:09:56;101626.03;;;6.03;100.00
13422;BME280;6782;55.904;13.396;2023-05-12T02:12:44;101640.94;;;6.10;100.00
13422;BME280;6782;55.904;13.396;2023-05-12T02:15:31;101635.63;;;6.04;100.00
13422;BME280;6782;55.904;13.396;2023-05-12T02:18:20;101639.06;;;5.97;100.00
13422;BME280;6782;55.904;13.396;2023-05-12T02:21:07;101642.72;;;6.11;100.00
13422;BME280;6782;55.904;13.396;2023-05-12T02:23:54;101649.72;;;6.13;100.00
13422;BME280;6782;55.904;13.396;2023-05-12T02:26:41;101635.50;;;5.89;100.00
13422;BME280;6782;55.904;13.396;2023-05-12T02:29:29;101645.16;;;5.93;100.00
13422;BME280;6782;55.904;13.396;2023-05-12T02:32:16;101652.03;;;5.85;100.00
13422;BME280;6782;55.904;13.396;2023-05-12T02:35:05;101648.34;;;5.70;100.00
13422;BME280;6782;55.904;13.396;2023-05-12T02:37:53;101646.50;;;5.60;100.00
13422;BME280;6782;55.904;13.396;2023-05-12T02:40:41;101652.50;;;5.49;100.00
13422;BME280;6782;55.904;13.396;2023-05-12T02:43:28;101674.34;;;5.55;100.00
13422;BME280;6782;55.904;13.396;2023-05-12T02:46:16;101672.53;;;5.48;100.00
13422;BME280;6782;55.904;13.396;2023-05-12T02:49:03;101680.47;;;5.54;100.00
13422;BME280;6782;55.904;13.396;2023-05-12T02:51:51;101683.94;;;5.55;100.00
13422;BME280;6782;55.904;13.396;2023-05-12T02:54:39;101694.47;;;5.61;100.00
13422;BME280;6782;55.904;13.396;2023-05-12T02:57:27;101702.38;;;5.65;100.00
13422;BME280;6782;55.904;13.396;2023-05-12T03:00:18;101703.19;;;5.58;100.00
13422;BME280;6782;55.904;13.396;2023-05-12T03:03:05;101706.81;;;5.71;100.00
13422;BME280;6782;55.904;13.396;2023-05-12T03:05:53;101707.53;;;5.56;100.00
13422;BME280;6782;55.904;13.396;2023-05-12T03:08:42;101709.31;;;5.60;100.00
13422;BME280;6782;55.904;13.396;2023-05-12T03:11:29;101711.81;;;5.51;100.00
13422;BME280;6782;55.904;13.396;2023-05-12T03:14:16;101714.44;;;5.51;100.00
13422;BME280;6782;55.904;13.396;2023-05-12T03:17:03;101717.78;;;5.41;100.00
13422;BME280;6782;55.904;13.396;2023-05-12T03:19:51;101731.66;;;5.37;100.00
13422;BME280;6782;55.904;13.396;2023-05-12T03:22:38;101737.00;;;5.43;100.00
13422;BME280;6782;55.904;13.396;2023-05-12T03:25:27;101738.78;;;5.47;100.00
13422;BME280;6782;55.904;13.396;2023-05-12T03:28:14;101753.03;;;5.69;100.00
13422;BME280;6782;55.904;13.396;2023-05-12T03:31:01;101778.97;;;6.21;100.00
13422;BME280;6782;55.904;13.396;2023-05-12T03:33:48;101815.63;;;7.06;100.00
13422;BME280;6782;55.904;13.396;2023-05-12T03:36:36;101831.91;;;7.87;100.00
13422;BME280;6782;55.904;13.396;2023-05-12T03:39:23;101823.38;;;8.37;100.00
13422;BME280;6782;55.904;13.396;2023-05-12T03:42:12;101798.03;;;8.70;100.00
13422;BME280;6782;55.904;13.396;2023-05-12T03:44:59;101785.78;;;8.98;100.00
13422;BME280;6782;55.904;13.396;2023-05-12T03:47:47;101764.66;;;9.42;100.00
13422;BME280;6782;55.904;13.396;2023-05-12T03:50:34;101721.59;;;9.51;100.00
13422;BME280;6782;55.904;13.396;2023-05-12T03:53:21;101671.69;;;9.29;100.00
13422;BME280;6782;55.904;13.396;2023-05-12T03:56:08;101655.81;;;9.46;100.00
13422;BME280;6782;55.904;13.396;2023-05-12T03:58:57;101631.28;;;9.33;100.00
13422;BME280;6782;55.904;13.396;2023-05-12T04:01:45;101615.41;;;9.52;100.00
13422;BME280;6782;55.904;13.396;2023-05-12T04:04:32;101589.81;;;9.75;100.00
13422;BME280;6782;55.904;13.396;2023-05-12T04:07:19;101596.56;;;10.18;100.00
13422;BME280;6782;55.904;13.396;2023-05-12T04:10:08;101547.59;;;9.84;100.00
13422;BME280;6782;55.904;13.396;2023-05-12T04:12:56;101542.94;;;10.18;100.00
13422;BME280;6782;55.904;13.396;2023-05-12T04:15:44;101551.28;;;10.65;100.00
13422;BME280;6782;55.904;13.396;2023-05-12T04:18:32;101490.38;;;10.82;100.00
13422;BME280;6782;55.904;13.396;2023-05-12T04:21:20;101399.97;;;9.93;100.00
13422;BME280;6782;55.904;13.396;2023-05-12T04:24:07;101392.69;;;9.22;100.00
13422;BME280;6782;55.904;13.396;2023-05-12T04:26:56;101421.97;;;8.75;100.00
13422;BME280;6782;55.904;13.396;2023-05-12T04:29:43;101426.50;;;8.35;100.00
13422;BME280;6782;55.904;13.396;2023-05-12T04:32:32;101444.09;;;7.95;100.00
13422;BME280;6782;55.904;13.396;2023-05-12T04:35:19;101521.09;;;8.17;100.00
13422;BME280;6782;55.904;13.396;2023-05-12T04:38:06;101563.16;;;8.22;100.00
13422;BME280;6782;55.904;13.396;2023-05-12T04:40:56;101567.53;;;8.01;100.00
13422;BME280;6782;55.904;13.396;2023-05-12T04:43:44;101595.56;;;8.05;100.00
13422;BME280;6782;55.904;13.396;2023-05-12T04:46:32;101619.22;;;8.16;100.00
13422;BME280;6782;55.904;13.396;2023-05-12T04:49:21;101635.84;;;8.13;100.00
13422;BME280;6782;55.904;13.396;2023-05-12T04:52:08;101655.16;;;8.31;100.00
13422;BME280;6782;55.904;13.396;2023-05-12T04:54:56;101663.94;;;8.34;100.00
13422;BME280;6782;55.904;13.396;2023-05-12T04:57:43;101682.31;;;8.58;100.00
13422;BME280;6782;55.904;13.396;2023-05-12T05:00:30;101695.47;;;8.72;100.00
13422;BME280;6782;55.904;13.396;2023-05-12T05:03:18;101693.69;;;8.71;100.00
13422;BME280;6782;55.904;13.396;2023-05-12T05:06:07;101711.22;;;8.87;100.00
13422;BME280;6782;55.904;13.396;2023-05-12T05:08:55;101718.19;;;9.18;100.00
13422;BME280;6782;55.904;13.396;2023-05-12T05:11:42;101714.72;;;9.16;100.00
13422;BME280;6782;55.904;13.396;2023-05-12T05:14:29;101712.94;;;9.24;100.00
13422;BME280;6782;55.904;13.396;2023-05-12T05:17:16;101732.13;;;9.51;100.00
13422;BME280;6782;55.904;13.396;2023-05-12T05:20:04;101726.91;;;9.44;100.00
13422;BME280;6782;55.904;13.396;2023-05-12T05:22:54;101712.88;;;9.44;100.00
13422;BME280;6782;55.904;13.396;2023-05-12T05:25:41;101739.09;;;9.73;100.00
13422;BME280;6782;55.904;13.396;2023-05-12T05:28:29;101745.97;;;10.04;100.00
13422;BME280;6782;55.904;13.396;2023-05-12T05:31:17;101739.81;;;10.06;100.00
13422;BME280;6782;55.904;13.396;2023-05-12T05:34:04;101754.50;;;10.51;100.00
13422;BME280;6782;55.904;13.396;2023-05-12T05:36:51;101737.81;;;10.52;100.00
13422;BME280;6782;55.904;13.396;2023-05-12T05:39:41;101734.00;;;10.85;100.00
13422;BME280;6782;55.904;13.396;2023-05-12T05:42:28;101715.44;;;10.96;100.00
13422;BME280;6782;55.904;13.396;2023-05-12T05:45:15;101709.97;;;11.14;100.00
13422;BME280;6782;55.904;13.396;2023-05-12T05:48:02;101693.06;;;11.30;100.00
13422;BME280;6782;55.904;13.396;2023-05-12T05:50:35;101668.53;;;11.20;100.00
13422;BME280;6782;55.904;13.396;2023-05-12T05:53:21;101664.94;;;11.29;100.00
13422;BME280;6782;55.904;13.396;2023-05-12T05:56:09;101655.03;;;11.46;100.00
13422;BME280;6782;55.904;13.396;2023-05-12T05:58:57;101647.66;;;11.72;100.00
13422;BME280;6782;55.904;13.396;2023-05-12T06:01:47;101611.63;;;11.65;100.00
13422;BME280;6782;55.904;13.396;2023-05-12T06:04:34;101619.19;;;11.92;100.00
13422;BME280;6782;55.904;13.396;2023-05-12T06:07:21;101590.78;;;12.07;100.00
13422;BME280;6782;55.904;13.396;2023-05-12T06:10:08;101577.22;;;12.26;100.00
13422;BME280;6782;55.904;13.396;2023-05-12T06:12:57;101531.38;;;12.27;100.00
13422;BME280;6782;55.904;13.396;2023-05-12T06:15:44;101515.41;;;12.30;100.00
13422;BME280;6782;55.904;13.396;2023-05-12T06:18:12;101517.72;;;12.50;100.00
13422;BME280;6782;55.904;13.396;2023-05-12T06:20:59;101513.69;;;12.74;100.00
13422;BME280;6782;55.904;13.396;2023-05-12T06:23:46;101502.72;;;12.92;100.00
13422;BME280;6782;55.904;13.396;2023-05-12T06:26:33;101501.31;;;13.18;100.00
13422;BME280;6782;55.904;13.396;2023-05-12T06:29:22;101478.91;;;13.33;100.00
13422;BME280;6782;55.904;13.396;2023-05-12T06:32:10;101444.22;;;13.44;100.00
13422;BME280;6782;55.904;13.396;2023-05-12T06:34:57;101386.78;;;13.44;100.00
13422;BME280;6782;55.904;13.396;2023-05-12T06:37:44;101344.13;;;13.55;100.00
13422;BME280;6782;55.904;13.396;2023-05-12T06:40:34;101344.41;;;13.76;100.00
13422;BME280;6782;55.904;13.396;2023-05-12T06:43:21;101304.09;;;13.96;100.00
13422;BME280;6782;55.904;13.396;2023-05-12T06:46:10;101252.53;;;14.06;100.00
13422;BME280;6782;55.904;13.396;2023-05-12T06:48:59;101192.09;;;14.17;100.00
13422;BME280;6782;55.904;13.396;2023-05-12T06:51:46;101164.00;;;14.38;100.00
13422;BME280;6782;55.904;13.396;2023-05-12T06:54:33;101143.66;;;14.65;100.00
13422;BME280;6782;55.904;13.396;2023-05-12T06:57:21;101084.69;;;14.81;100.00
13422;BME280;6782;55.904;13.396;2023-05-12T07:00:09;101036.22;;;14.99;100.00
13422;BME280;6782;55.904;13.396;2023-05-12T07:02:57;100958.25;;;15.00;100.00
13422;BME280;6782;55.904;13.396;2023-05-12T07:05:45;100974.13;;;15.25;100.00
13422;BME280;6782;55.904;13.396;2023-05-12T07:08:32;100839.78;;;15.40;100.00
13422;BME280;6782;55.904;13.396;2023-05-12T07:11:20;100807.19;;;15.56;100.00
13422;BME280;6782;55.904;13.396;2023-05-12T07:14:07;100731.06;;;15.94;100.00
13422;BME280;6782;55.904;13.396;2023-05-12T07:16:54;100501.47;;;16.11;100.00
13422;BME280;6782;55.904;13.396;2023-05-12T07:19:43;100285.84;;;16.29;100.00
13422;BME280;6782;55.904;13.396;2023-05-12T07:22:30;100043.94;;;16.41;100.00
13422;BME280;6782;55.904;13.396;2023-05-12T07:25:18;99744.84;;;16.43;100.00
13422;BME280;6782;55.904;13.396;2023-05-12T07:28:05;99663.72;;;16.63;100.00
13422;BME280;6782;55.904;13.396;2023-05-12T07:30:52;99533.31;;;16.75;100.00
13422;BME280;6782;55.904;13.396;2023-05-12T07:33:40;99426.47;;;16.92;100.00
13422;BME280;6782;55.904;13.396;2023-05-12T07:36:29;99340.44;;;17.16;100.00
13422;BME280;6782;55.904;13.396;2023-05-12T07:39:16;99148.19;;;17.22;99.93
13422;BME280;6782;55.904;13.396;2023-05-12T07:42:08;98973.34;;;17.32;97.02
13422;BME280;6782;55.904;13.396;2023-05-12T07:44:55;98625.28;;;17.31;93.79
13422;BME280;6782;55.904;13.396;2023-05-12T07:47:42;98771.56;;;17.34;93.43
13422;BME280;6782;55.904;13.396;2023-05-12T07:50:29;98842.63;;;17.56;93.13
13422;BME280;6782;55.904;13.396;2023-05-12T07:53:19;98415.53;;;17.63;88.50
13422;BME280;6782;55.904;13.396;2023-05-12T07:56:06;98549.88;;;17.91;88.09
13422;BME280;6782;55.904;13.396;2023-05-12T07:58:54;98345.09;;;18.13;85.38
13422;BME280;6782;55.904;13.396;2023-05-12T08:01:42;98167.31;;;18.32;82.76
13422;BME280;6782;55.904;13.396;2023-05-12T08:04:29;98076.91;;;18.56;80.36
13422;BME280;6782;55.904;13.396;2023-05-12T08:07:16;101059.81;;;18.67;76.05
13422;BME280;6782;55.904;13.396;2023-05-12T08:10:06;101107.13;;;18.65;73.06
13422;BME280;6782;55.904;13.396;2023-05-12T08:12:53;101227.38;;;18.65;71.60
13422;BME280;6782;55.904;13.396;2023-05-12T08:15:40;101245.66;;;18.74;70.12
13422;BME280;6782;55.904;13.396;2023-05-12T08:18:27;101244.94;;;18.88;69.01
13422;BME280;6782;55.904;13.396;2023-05-12T08:21:14;101253.88;;;19.05;66.53
13422;BME280;6782;55.904;13.396;2023-05-12T08:24:02;101241.25;;;18.90;63.04
13422;BME280;6782;55.904;13.396;2023-05-12T08:26:51;101249.13;;;18.93;60.09
13422;BME280;6782;55.904;13.396;2023-05-12T08:29:38;101353.84;;;19.20;60.60
13422;BME280;6782;55.904;13.396;2023-05-12T08:32:25;101305.31;;;19.27;57.97
13422;BME280;6782;55.904;13.396;2023-05-12T08:35:12;101318.44;;;19.51;57.53
13422;BME280;6782;55.904;13.396;2023-05-12T08:38:00;101297.50;;;19.59;55.71
13422;BME280;6782;55.904;13.396;2023-05-12T08:40:55;101486.25;;;19.66;53.23
13422;BME280;6782;55.904;13.396;2023-05-12T08:43:49;101473.25;;;19.58;52.19
13422;BME280;6782;55.904;13.396;2023-05-12T08:46:37;101477.00;;;19.54;51.40
13422;BME280;6782;55.904;13.396;2023-05-12T08:49:28;101487.88;;;19.51;50.32
13422;BME280;6782;55.904;13.396;2023-05-12T08:52:17;101507.38;;;19.72;50.05
13422;BME280;6782;55.904;13.396;2023-05-12T08:55:08;101467.44;;;19.67;48.05
13422;BME280;6782;55.904;13.396;2023-05-12T08:57:57;101502.94;;;19.89;47.74
13422;BME280;6782;55.904;13.396;2023-05-12T09:00:48;101520.16;;;20.01;47.42
13422;BME280;6782;55.904;13.396;2023-05-12T09:03:36;101578.38;;;19.97;47.94
13422;BME280;6782;55.904;13.396;2023-05-12T09:06:23;101649.22;;;20.28;47.98
13422;BME280;6782;55.904;13.396;2023-05-12T09:09:12;101644.38;;;20.17;47.02
13422;BME280;6782;55.904;13.396;2023-05-12T09:12:01;101660.34;;;20.19;47.09
13422;BME280;6782;55.904;13.396;2023-05-12T09:14:43;101666.97;;;20.30;46.84
13422;BME280;6782;55.904;13.396;2023-05-12T09:17:12;101715.63;;;20.57;47.10
13422;BME280;6782;55.904;13.396;2023-05-12T09:19:39;101689.81;;;20.19;45.43
13422;BME280;6782;55.904;13.396;2023-05-12T09:22:07;101737.88;;;20.23;46.34
13422;BME280;6782;55.904;13.396;2023-05-12T09:24:57;101720.75;;;20.07;45.63
13422;BME280;6782;55.904;13.396;2023-05-12T09:27:43;101741.34;;;20.25;45.66
13422;BME280;6782;55.904;13.396;2023-05-12T09:30:32;101741.38;;;20.42;44.85
13422;BME280;6782;55.904;13.396;2023-05-12T09:33:24;101746.59;;;20.45;44.05
13422;BME280;6782;55.904;13.396;2023-05-12T09:36:16;101743.94;;;20.45;43.90
13422;BME280;6782;55.904;13.396;2023-05-12T09:39:05;101747.34;;;20.30;43.31
13422;BME280;6782;55.904;13.396;2023-05-12T09:41:52;101756.03;;;20.35;43.10
13422;BME280;6782;55.904;13.396;2023-05-12T09:44:40;101776.63;;;20.71;43.16
13422;BME280;6782;55.904;13.396;2023-05-12T09:47:27;101773.81;;;20.74;42.68
13422;BME280;6782;55.904;13.396;2023-05-12T09:50:16;101747.22;;;20.33;42.06
13422;BME280;6782;55.904;13.396;2023-05-12T09:53:05;101792.34;;;20.59;42.52
13422;BME280;6782;55.904;13.396;2023-05-12T09:55:52;101771.22;;;20.53;41.98
13422;BME280;6782;55.904;13.396;2023-05-12T09:58:41;101768.06;;;20.45;42.02
13422;BME280;6782;55.904;13.396;2023-05-12T10:01:29;101758.63;;;20.55;41.55
13422;BME280;6782;55.904;13.396;2023-05-12T10:04:17;101761.06;;;20.60;41.43
13422;BME280;6782;55.904;13.396;2023-05-12T10:07:07;101809.53;;;20.74;42.02
13422;BME280;6782;55.904;13.396;2023-05-12T10:09:58;101768.22;;;20.78;41.38
13422;BME280;6782;55.904;13.396;2023-05-12T10:12:48;101755.28;;;20.50;40.82
13422;BME280;6782;55.904;13.396;2023-05-12T10:15:36;101774.41;;;20.62;40.98
13422;BME280;6782;55.904;13.396;2023-05-12T10:18:23;101785.88;;;20.46;41.36
13422;BME280;6782;55.904;13.396;2023-05-12T10:20:58;101886.34;;;20.94;43.33
13422;BME280;6782;55.904;13.396;2023-05-12T10:23:29;101838.56;;;21.02;43.09
13422;BME280;6782;55.904;13.396;2023-05-12T10:25:58;101849.66;;;21.13;42.94
13422;BME280;6782;55.904;13.396;2023-05-12T10:28:45;101760.91;;;20.82;41.48
13422;BME280;6782;55.904;13.396;2023-05-12T10:31:33;101731.84;;;20.73;40.56
13422;BME280;6782;55.904;13.396;2023-05-12T10:34:15;101772.13;;;20.90;41.21
13422;BME280;6782;55.904;13.396;2023-05-12T10:36:45;101757.88;;;20.71;40.67
13422;BME280;6782;55.904;13.396;2023-05-12T10:39:15;101767.69;;;20.89;40.36
13422;BME280;6782;55.904;13.396;2023-05-12T10:41:43;101804.53;;;21.21;40.70
13422;BME280;6782;55.904;13.396;2023-05-12T10:44:10;101762.84;;;21.14;40.19
13422;BME280;6782;55.904;13.396;2023-05-12T10:46:38;101741.84;;;21.05;39.71
13422;BME280;6782;55.904;13.396;2023-05-12T10:49:10;101734.44;;;21.10;39.72
13422;BME280;6782;55.904;13.396;2023-05-12T10:51:46;101719.16;;;20.76;39.29
13422;BME280;6782;55.904;13.396;2023-05-12T10:54:20;101756.59;;;20.78;39.80
13422;BME280;6782;55.904;13.396;2023-05-12T10:56:48;101809.25;;;21.16;40.94
13422;BME280;6782;55.904;13.396;2023-05-12T10:59:18;101774.47;;;20.96;40.50
13422;BME280;6782;55.904;13.396;2023-05-12T11:01:59;101722.78;;;20.75;39.28
13422;BME280;6782;55.904;13.396;2023-05-12T11:04:38;101751.44;;;20.92;39.52
13422;BME280;6782;55.904;13.396;2023-05-12T11:07:09;101722.09;;;20.89;39.06
13422;BME280;6782;55.904;13.396;2023-05-12T11:09:40;101742.97;;;21.18;38.77
13422;BME280;6782;55.904;13.396;2023-05-12T11:12:09;101725.91;;;21.19;38.24
13422;BME280;6782;55.904;13.396;2023-05-12T11:14:38;101792.28;;;21.50;39.32
13422;BME280;6782;55.904;13.396;2023-05-12T11:17:07;101770.13;;;21.46;38.22
13422;BME280;6782;55.904;13.396;2023-05-12T11:19:35;101949.91;;;21.65;38.60
13422;BME280;6782;55.904;13.396;2023-05-12T11:22:10;101906.69;;;21.35;37.59
13422;BME280;6782;55.904;13.396;2023-05-12T11:24:40;101927.53;;;21.47;37.90
13422;BME280;6782;55.904;13.396;2023-05-12T11:27:11;101938.88;;;21.35;38.09
13422;BME280;6782;55.904;13.396;2023-05-12T11:29:39;101892.19;;;21.02;37.55
13422;BME280;6782;55.904;13.396;2023-05-12T11:32:25;101900.09;;;21.05;37.07
13422;BME280;6782;55.904;13.396;2023-05-12T11:35:11;101931.03;;;21.49;37.79
13422;BME280;6782;55.904;13.396;2023-05-12T11:37:59;101929.78;;;21.56;37.12
13422;BME280;6782;55.904;13.396;2023-05-12T11:40:49;101938.97;;;21.69;37.62
13422;BME280;6782;55.904;13.396;2023-05-12T11:43:36;101972.31;;;21.82;38.13
13422;BME280;6782;55.904;13.396;2023-05-12T11:46:24;101906.22;;;21.44;37.09
13422;BME280;6782;55.904;13.396;2023-05-12T11:49:11;101925.28;;;21.57;37.20
13422;BME280;6782;55.904;13.396;2023-05-12T11:51:59;101931.16;;;21.82;37.24
13422;BME280;6782;55.904;13.396;2023-05-12T11:54:48;101904.78;;;21.37;36.32
13422;BME280;6782;55.904;13.396;2023-05-12T11:57:38;101983.34;;;21.95;37.61
13422;BME280;6782;55.904;13.396;2023-05-12T12:00:27;101995.09;;;22.27;37.96
13422;BME280;6782;55.904;13.396;2023-05-12T12:03:15;101943.00;;;22.29;36.27
13422;BME280;6782;55.904;13.396;2023-05-12T12:06:03;101963.16;;;22.04;36.93
13422;BME280;6782;55.904;13.396;2023-05-12T12:08:55;101954.88;;;21.91;36.68
13422;BME280;6782;55.904;13.396;2023-05-12T12:11:44;101959.22;;;22.28;36.92
13422;BME280;6782;55.904;13.396;2023-05-12T12:14:34;101907.28;;;21.93;36.16
13422;BME280;6782;55.904;13.396;2023-05-12T12:17:22;101921.94;;;22.05;35.94
13422;BME280;6782;55.904;13.396;2023-05-12T12:20:15;101913.69;;;21.73;36.30
13422;BME280;6782;55.904;13.396;2023-05-12T12:23:03;101942.28;;;21.74;36.73
13422;BME280;6782;55.904;13.396;2023-05-12T12:25:50;101975.47;;;22.42;37.00
13422;BME280;6782;55.904;13.396;2023-05-12T12:28:38;101891.44;;;21.89;35.64
13422;BME280;6782;55.904;13.396;2023-05-12T12:31:27;101919.69;;;21.78;36.39
13422;BME280;6782;55.904;13.396;2023-05-12T12:34:14;101919.25;;;21.88;35.86
13422;BME280;6782;55.904;13.396;2023-05-12T12:37:02;101944.19;;;22.07;36.08
13422;BME280;6782;55.904;13.396;2023-05-12T12:39:51;101923.19;;;22.48;35.44
13422;BME280;6782;55.904;13.396;2023-05-12T12:42:38;101921.78;;;22.08;35.53
13422;BME280;6782;55.904;13.396;2023-05-12T12:45:26;101962.38;;;22.36;36.29
13422;BME280;6782;55.904;13.396;2023-05-12T12:48:15;101917.69;;;22.01;35.15
13422;BME280;6782;55.904;13.396;2023-05-12T12:51:03;101965.53;;;22.44;36.11
13422;BME280;6782;55.904;13.396;2023-05-12T12:53:50;101875.59;;;21.65;34.80
13422;BME280;6782;55.904;13.396;2023-05-12T12:56:38;101953.38;;;22.03;36.71
13422;BME280;6782;55.904;13.396;2023-05-12T12:59:25;101903.75;;;22.10;35.37
13422;BME280;6782;55.904;13.396;2023-05-12T13:02:12;101878.72;;;21.92;34.78
13422;BME280;6782;55.904;13.396;2023-05-12T13:05:01;101930.09;;;22.36;35.41
13422;BME280;6782;55.904;13.396;2023-05-12T13:07:50;101969.75;;;22.65;36.30
13422;BME280;6782;55.904;13.396;2023-05-12T13:10:38;101887.06;;;22.20;34.78
13422;BME280;6782;55.904;13.396;2023-05-12T13:13:26;101880.53;;;21.92;34.74
13422;BME280;6782;55.904;13.396;2023-05-12T13:16:14;101900.09;;;21.76;35.60
13422;BME280;6782;55.904;13.396;2023-05-12T13:19:01;101876.16;;;21.55;35.18
13422;BME280;6782;55.904;13.396;2023-05-12T13:21:50;101872.13;;;21.46;35.14
13422;BME280;6782;55.904;13.396;2023-05-12T13:24:37;101902.97;;;22.08;34.79
13422;BME280;6782;55.904;13.396;2023-05-12T13:27:24;101904.88;;;22.06;34.94
13422;BME280;6782;55.904;13.396;2023-05-12T13:30:11;101925.81;;;22.49;35.35
13422;BME280;6782;55.904;13.396;2023-05-12T13:32:58;101923.13;;;22.32;35.46
13422;BME280;6782;55.904;13.396;2023-05-12T13:35:46;101858.88;;;21.95;34.36
13422;BME280;6782;55.904;13.396;2023-05-12T13:38:34;101875.78;;;21.79;34.88
13422;BME280;6782;55.904;13.396;2023-05-12T13:41:21;101936.16;;;22.57;35.44
13422;BME280;6782;55.904;13.396;2023-05-12T13:44:09;101857.56;;;22.19;34.73
13422;BME280;6782;55.904;13.396;2023-05-12T13:46:56;101872.44;;;22.09;34.71
13422;BME280;6782;55.904;13.396;2023-05-12T13:49:43;101872.78;;;22.03;35.00
13422;BME280;6782;55.904;13.396;2023-05-12T13:52:31;101891.47;;;22.54;34.23
13422;BME280;6782;55.904;13.396;2023-05-12T13:55:21;101876.38;;;22.52;34.15
13422;BME280;6782;55.904;13.396;2023-05-12T13:58:08;101875.06;;;22.59;33.89
13422;BME280;6782;55.904;13.396;2023-05-12T14:00:56;101956.22;;;23.15;34.68
13422;BME280;6782;55.904;13.396;2023-05-12T14:03:43;101853.44;;;22.44;33.71
13422;BME280;6782;55.904;13.396;2023-05-12T14:06:30;101943.47;;;23.19;34.79
13422;BME280;6782;55.904;13.396;2023-05-12T14:09:18;101921.31;;;23.14;34.76
13422;BME280;6782;55.904;13.396;2023-05-12T14:12:07;101944.22;;;23.67;34.83
13422;BME280;6782;55.904;13.396;2023-05-12T14:14:54;101894.63;;;23.25;34.28
13422;BME280;6782;55.904;13.396;2023-05-12T14:17:42;101919.91;;;23.53;34.36
13422;BME280;6782;55.904;13.396;2023-05-12T14:20:29;101880.34;;;22.60;34.62
13422;BME280;6782;55.904;13.396;2023-05-12T14:23:17;101900.06;;;22.61;34.59
13422;BME280;6782;55.904;13.396;2023-05-12T14:26:04;101817.13;;;22.05;33.70